American Star — WDD7311 — position and weather

sailwx.info

Track history (hours):
 
Tides and Currents Weather Stations Pressure Air Temp Water Temp Dewpoint Dewpoint Depression Visibility Wind Speed Wind Dir Waves Ship Positions

American Star

Owner: American Cruise Lines, Inc, Delmar, DE. More information available from US FCC via Universal Licensing System and Coast Guard Vessel Documentation Center.

Last reported at 2016-Sep-25 00:33 UTC. Time now 2016-Sep-28 15:29 UTC.
Position N 40°50' W 073°58'.

Length 60 m; draft 2.1 m.

Type: Ship (hazmat cat C). MMSI: 367184740.

Date/timePositionNaut miles runAvg speedWind from/ knotsBaromVisibWave heightAir tempDewpointWater temp
2016-Sep-25 00:33N 40°50' W 073°58'9 4.3
2016-Sep-24 22:33N 40°42' W 074°02'2 2.4
2016-Sep-24 21:34N 40°43' W 073°59'0 0.0
2016-Sep-24 19:33N 40°43' W 073°59'0 0.0
2016-Sep-24 18:33N 40°43' W 073°59'0 0.0
2016-Sep-24 17:33N 40°43' W 073°59'0 0.0
2016-Sep-24 16:33N 40°43' W 073°59'0 0.0
2016-Sep-24 14:33N 40°43' W 073°59'0 0.0
2016-Sep-24 12:33N 40°43' W 073°59'0 0.0
2016-Sep-24 10:34N 40°43' W 073°59'0 0.0
2016-Sep-24 09:33N 40°43' W 073°59'0 0.0
2016-Sep-24 03:34N 40°43' W 073°59'0 0.0
2016-Sep-24 02:34N 40°43' W 073°59'0 0.0
2016-Sep-24 01:33N 40°43' W 073°59'0 0.0
2016-Sep-24 00:33N 40°43' W 073°59'  
2016-Sep-19 16:28N 40°56' W 073°54'14 0.7
2016-Sep-18 19:34N 40°43' W 073°59'0 0.0
2016-Sep-18 15:34N 40°43' W 073°59'0 0.0
2016-Sep-18 14:34N 40°43' W 073°59'0 0.0
2016-Sep-18 10:32N 40°43' W 073°59'0 0.0
2016-Sep-18 09:20N 40°43' W 073°59'133 6.7
2016-Sep-17 13:33N 41°44' W 071°22'5 1.6
2016-Sep-17 10:29N 41°49' W 071°24'0 0.0
2016-Sep-17 09:29N 41°49' W 071°24'  
Track history (hours):
 
Tides and Currents Weather Stations Pressure Air Temp Water Temp Dewpoint Dewpoint Depression Visibility Wind Speed Wind Dir Waves Ship Positions

American Star

Owner: American Cruise Lines, Inc, Delmar, DE. More information available from US FCC via Universal Licensing System and Coast Guard Vessel Documentation Center.

Last reported at 2016-Sep-25 00:33 UTC. Time now 2016-Sep-28 15:29 UTC.
Position N 40°50' W 073°58'.

Length 60 m; draft 2.1 m.

Type: Ship (hazmat cat C). MMSI: 367184740.

Date/timePositionNaut miles runAvg speedWind from/ knotsBaromVisibWave heightAir tempDewpointWater temp
2016-Sep-25 00:33N 40°50' W 073°58'9 4.3
2016-Sep-24 22:33N 40°42' W 074°02'2 2.4
2016-Sep-24 21:34N 40°43' W 073°59'0 0.0
2016-Sep-24 19:33N 40°43' W 073°59'0 0.0
2016-Sep-24 18:33N 40°43' W 073°59'0 0.0
2016-Sep-24 17:33N 40°43' W 073°59'0 0.0
2016-Sep-24 16:33N 40°43' W 073°59'0 0.0
2016-Sep-24 14:33N 40°43' W 073°59'0 0.0
2016-Sep-24 12:33N 40°43' W 073°59'0 0.0
2016-Sep-24 10:34N 40°43' W 073°59'0 0.0
2016-Sep-24 09:33N 40°43' W 073°59'0 0.0
2016-Sep-24 03:34N 40°43' W 073°59'0 0.0
2016-Sep-24 02:34N 40°43' W 073°59'0 0.0
2016-Sep-24 01:33N 40°43' W 073°59'0 0.0
2016-Sep-24 00:33N 40°43' W 073°59'  
2016-Sep-19 16:28N 40°56' W 073°54'14 0.7
2016-Sep-18 19:34N 40°43' W 073°59'0 0.0
2016-Sep-18 15:34N 40°43' W 073°59'0 0.0
2016-Sep-18 14:34N 40°43' W 073°59'0 0.0
2016-Sep-18 10:32N 40°43' W 073°59'0 0.0
2016-Sep-18 09:20N 40°43' W 073°59'133 6.7
2016-Sep-17 13:33N 41°44' W 071°22'5 1.6
2016-Sep-17 10:29N 41°49' W 071°24'0 0.0
2016-Sep-17 09:29N 41°49' W 071°24'  

Dump ship's entire track history